createdAt,value
2022-12-18T00:00:51.801Z,1019.92
2022-12-18T00:03:51.986Z,1019.85
2022-12-18T00:06:51.815Z,1019.82
2022-12-18T00:09:51.812Z,1019.83
2022-12-18T00:12:51.812Z,1019.84
2022-12-18T00:15:51.848Z,1019.85
2022-12-18T00:18:51.812Z,1019.84
2022-12-18T00:21:51.815Z,1019.91
2022-12-18T00:24:51.815Z,1019.88
2022-12-18T00:27:51.835Z,1019.88
2022-12-18T00:30:51.820Z,1019.84
2022-12-18T00:33:53.911Z,1019.79
2022-12-18T00:36:51.820Z,1019.83
2022-12-18T00:39:51.837Z,1019.78
2022-12-18T00:42:51.831Z,1019.76
2022-12-18T00:45:51.865Z,1019.74
2022-12-18T00:48:51.836Z,1019.71
2022-12-18T00:51:51.847Z,1019.78
2022-12-18T00:54:51.858Z,1019.84
2022-12-18T00:57:51.846Z,1019.9
2022-12-18T01:00:51.863Z,1019.9
2022-12-18T01:03:51.840Z,1019.94
2022-12-18T01:06:51.843Z,1019.94
2022-12-18T01:09:51.845Z,1019.95
2022-12-18T01:12:51.854Z,1020
2022-12-18T01:15:51.862Z,1019.97
2022-12-18T01:18:51.852Z,1019.91
2022-12-18T01:21:51.849Z,1019.92
2022-12-18T01:24:51.844Z,1020.01
2022-12-18T01:27:51.844Z,1020.04
2022-12-18T01:30:51.844Z,1020.07
2022-12-18T01:33:51.840Z,1020.09
2022-12-18T01:36:51.868Z,1020.14
2022-12-18T01:39:51.856Z,1020.18
2022-12-18T01:42:51.854Z,1020.26
2022-12-18T01:45:51.931Z,1020.34
2022-12-18T01:48:51.848Z,1020.31
2022-12-18T01:51:51.886Z,1020.31
2022-12-18T01:54:51.853Z,1020.24
2022-12-18T01:57:51.880Z,1020.15
2022-12-18T02:00:51.936Z,1020.12
2022-12-18T02:03:51.876Z,1020.16
2022-12-18T02:06:51.879Z,1020.2
2022-12-18T02:09:51.899Z,1020.15
2022-12-18T02:12:51.889Z,1020.12
2022-12-18T02:15:51.880Z,1020.08
2022-12-18T02:18:51.882Z,1020.01
2022-12-18T02:21:51.872Z,1020.09
2022-12-18T02:24:51.878Z,1020.11
2022-12-18T02:27:51.876Z,1020.1
2022-12-18T02:30:51.959Z,1020.02
2022-12-18T02:33:51.904Z,1019.96
2022-12-18T02:36:51.901Z,1019.88
2022-12-18T02:39:51.919Z,1019.89
2022-12-18T02:42:51.903Z,1019.89
2022-12-18T02:45:51.946Z,1019.96
2022-12-18T02:48:51.900Z,1020.04
2022-12-18T02:51:51.905Z,1020.1
2022-12-18T02:54:51.902Z,1020.04
2022-12-18T02:57:51.909Z,1019.94
2022-12-18T03:00:51.963Z,1019.92
2022-12-18T03:03:51.951Z,1019.97
2022-12-18T03:06:51.954Z,1019.95
2022-12-18T03:09:51.935Z,1019.95
2022-12-18T03:12:51.930Z,1020.11
2022-12-18T03:15:51.970Z,1020.17
2022-12-18T03:18:51.949Z,1020.04
2022-12-18T03:21:51.960Z,1020.01
2022-12-18T03:24:51.958Z,1020.04
2022-12-18T03:27:51.945Z,1019.96
2022-12-18T03:30:52.041Z,1019.93
2022-12-18T03:33:51.936Z,1019.91
2022-12-18T03:36:51.978Z,1019.91
2022-12-18T03:39:51.956Z,1019.93
2022-12-18T03:42:51.978Z,1019.95
2022-12-18T03:45:52.349Z,1019.93
2022-12-18T03:48:51.966Z,1019.93
2022-12-18T03:51:51.992Z,1019.89
2022-12-18T03:54:51.975Z,1019.92
2022-12-18T03:57:51.967Z,1019.88
2022-12-18T04:00:51.992Z,1019.86
2022-12-18T04:03:52.058Z,1019.81
2022-12-18T04:06:51.983Z,1019.85
2022-12-18T04:09:51.974Z,1019.95
2022-12-18T04:12:51.976Z,1020.03
2022-12-18T04:15:51.990Z,1019.97
2022-12-18T04:18:51.986Z,1019.97
2022-12-18T04:21:51.966Z,1019.84
2022-12-18T04:24:52.001Z,1019.82
2022-12-18T04:27:52.008Z,1019.86
2022-12-18T04:30:52.020Z,1019.9
2022-12-18T04:33:51.984Z,1019.88
2022-12-18T04:36:51.982Z,1019.89
2022-12-18T04:39:51.989Z,1019.88
2022-12-18T04:42:52.271Z,1019.84
2022-12-18T04:45:51.988Z,1019.84
2022-12-18T04:48:51.988Z,1019.79
2022-12-18T04:51:51.998Z,1019.75
2022-12-18T04:54:51.982Z,1019.79
2022-12-18T04:57:51.995Z,1019.8
2022-12-18T05:00:51.993Z,1019.81
2022-12-18T05:03:52.007Z,1019.77
2022-12-18T05:06:51.996Z,1019.77
2022-12-18T05:09:51.988Z,1019.76
2022-12-18T05:12:51.989Z,1019.84
2022-12-18T05:15:52.056Z,1019.87
2022-12-18T05:18:51.988Z,1020.01
2022-12-18T05:21:51.986Z,1020.02
2022-12-18T05:24:52.002Z,1020.03
2022-12-18T05:27:52.007Z,1020.03
2022-12-18T05:30:52.050Z,1020
2022-12-18T05:33:52.007Z,1019.98
2022-12-18T05:36:52.030Z,1020.02
2022-12-18T05:39:52.012Z,1020.02
2022-12-18T05:42:52.009Z,1019.99
2022-12-18T05:45:52.008Z,1019.88
2022-12-18T05:48:51.998Z,1019.82
2022-12-18T05:51:51.997Z,1019.81
2022-12-18T05:54:52.016Z,1019.77
2022-12-18T05:57:51.986Z,1019.85
2022-12-18T06:00:52.000Z,1019.85
2022-12-18T06:03:52.233Z,1019.82
2022-12-18T06:06:52.013Z,1019.87
2022-12-18T06:09:51.993Z,1019.94
2022-12-18T06:12:51.997Z,1019.98
2022-12-18T06:15:52.060Z,1020
2022-12-18T06:18:51.997Z,1019.98
2022-12-18T06:21:52.043Z,1020.01
2022-12-18T06:24:52.011Z,1020.06
2022-12-18T06:27:52.011Z,1020.09
2022-12-18T06:30:52.031Z,1020.13
2022-12-18T06:33:52.029Z,1020.13
2022-12-18T06:36:52.038Z,1020.18
2022-12-18T06:39:52.031Z,1020.24
2022-12-18T06:42:52.027Z,1020.31
2022-12-18T06:45:52.070Z,1020.27
2022-12-18T06:48:52.030Z,1020.28
2022-12-18T06:51:52.028Z,1020.29
2022-12-18T06:54:52.040Z,1020.3
2022-12-18T06:57:52.056Z,1020.3
2022-12-18T07:00:52.034Z,1020.34
2022-12-18T07:03:52.037Z,1020.37
2022-12-18T07:06:52.057Z,1020.38
2022-12-18T07:09:52.040Z,1020.37
2022-12-18T07:12:52.042Z,1020.43
2022-12-18T07:15:52.037Z,1020.49
2022-12-18T07:18:52.029Z,1020.5
2022-12-18T07:21:52.032Z,1020.51
2022-12-18T07:24:52.050Z,1020.53
2022-12-18T07:27:52.180Z,1020.5
2022-12-18T07:30:52.178Z,1020.45
2022-12-18T07:33:52.193Z,1020.35
2022-12-18T07:36:52.194Z,1020.38
2022-12-18T07:39:52.177Z,1020.36
2022-12-18T07:42:52.303Z,1020.37
2022-12-18T07:45:52.252Z,1020.46
2022-12-18T07:48:52.219Z,1020.5
2022-12-18T07:51:52.208Z,1020.46
2022-12-18T07:54:52.194Z,1020.46
2022-12-18T07:57:55.298Z,1020.46
2022-12-18T08:00:52.207Z,1020.45
2022-12-18T08:03:52.640Z,1020.46
2022-12-18T08:06:52.209Z,1020.41
2022-12-18T08:09:52.219Z,1020.44
2022-12-18T08:12:52.224Z,1020.49
2022-12-18T08:15:52.215Z,1020.44
2022-12-18T08:18:52.219Z,1020.46
2022-12-18T08:21:52.218Z,1020.49
2022-12-18T08:24:52.227Z,1020.47
2022-12-18T08:27:52.231Z,1020.6
2022-12-18T08:30:52.295Z,1020.58
2022-12-18T08:33:52.222Z,1020.58
2022-12-18T08:36:52.244Z,1020.5
2022-12-18T08:39:52.233Z,1020.42
2022-12-18T08:42:52.236Z,1020.42
2022-12-18T08:45:52.304Z,1020.36
2022-12-18T08:48:52.232Z,1020.3
2022-12-18T08:51:52.235Z,1020.26
2022-12-18T08:54:52.230Z,1020.21
2022-12-18T08:57:52.261Z,1020.15
2022-12-18T09:00:52.269Z,1020.13
2022-12-18T09:03:52.260Z,1020.17
2022-12-18T09:06:52.258Z,1020.17
2022-12-18T09:09:52.262Z,1020.28
2022-12-18T09:12:52.491Z,1020.24
2022-12-18T09:15:52.301Z,1020.32
2022-12-18T09:18:52.289Z,1020.4
2022-12-18T09:21:52.286Z,1020.42
2022-12-18T09:24:52.283Z,1020.38
2022-12-18T09:27:52.270Z,1020.37
2022-12-18T09:30:52.360Z,1020.33
2022-12-18T09:33:52.273Z,1020.35
2022-12-18T09:36:52.272Z,1020.42
2022-12-18T09:39:52.265Z,1020.45
2022-12-18T09:42:52.275Z,1020.48
2022-12-18T09:45:52.302Z,1020.44
2022-12-18T09:48:52.254Z,1020.45
2022-12-18T09:51:52.260Z,1020.47
2022-12-18T09:54:52.259Z,1020.52
2022-12-18T09:57:52.254Z,1020.49
2022-12-18T10:00:52.265Z,1020.46
2022-12-18T10:03:52.265Z,1020.44
2022-12-18T10:06:52.273Z,1020.41
2022-12-18T10:09:52.252Z,1020.48
2022-12-18T10:12:52.276Z,1020.52
2022-12-18T10:15:52.278Z,1020.51
2022-12-18T10:18:52.263Z,1020.48
2022-12-18T10:21:52.266Z,1020.45
2022-12-18T10:24:52.288Z,1020.4
2022-12-18T10:27:52.299Z,1020.33
2022-12-18T10:30:52.289Z,1020.24
2022-12-18T10:33:52.408Z,1020.2
2022-12-18T10:36:52.276Z,1020.3
2022-12-18T10:39:52.296Z,1020.29
2022-12-18T10:42:52.294Z,1020.28
2022-12-18T10:45:52.296Z,1020.38
2022-12-18T10:48:52.288Z,1020.32
2022-12-18T10:51:52.284Z,1020.33
2022-12-18T10:54:52.303Z,1020.33
2022-12-18T10:57:52.284Z,1020.4
2022-12-18T11:00:52.282Z,1020.34
2022-12-18T11:03:54.324Z,1020.3
2022-12-18T11:06:52.302Z,1020.3
2022-12-18T11:09:52.291Z,1020.35
2022-12-18T11:12:52.285Z,1020.32
2022-12-18T11:15:52.312Z,1020.32
2022-12-18T11:18:52.594Z,1020.23
2022-12-18T11:21:52.327Z,1020.2
2022-12-18T11:25:08.614Z,1020.32
2022-12-18T11:27:52.315Z,1020.3
2022-12-18T11:30:52.322Z,1020.2
2022-12-18T11:34:12.206Z,1020.16
2022-12-18T11:36:52.311Z,1020.13
2022-12-18T11:39:52.313Z,1020.1
2022-12-18T11:42:52.313Z,1020.05
2022-12-18T11:45:52.352Z,1020.05
2022-12-18T11:48:52.323Z,1020.08
2022-12-18T11:51:52.322Z,1020.06
2022-12-18T11:54:52.317Z,1020.07
2022-12-18T11:57:52.320Z,1019.96
2022-12-18T12:00:52.325Z,1020.03
2022-12-18T12:03:52.350Z,1019.98
2022-12-18T12:06:52.323Z,1019.88
2022-12-18T12:09:52.319Z,1019.98
2022-12-18T12:12:52.320Z,1020.04
2022-12-18T12:15:52.367Z,1020.07
2022-12-18T12:18:52.301Z,1020.01
2022-12-18T12:21:52.302Z,1019.97
2022-12-18T12:24:52.306Z,1019.97
2022-12-18T12:27:52.301Z,1019.97
2022-12-18T12:30:52.302Z,1019.94
2022-12-18T12:33:52.314Z,1019.92
2022-12-18T12:36:52.308Z,1019.91
2022-12-18T12:39:52.293Z,1019.85
2022-12-18T12:42:52.311Z,1019.81
2022-12-18T12:45:52.330Z,1019.76
2022-12-18T12:48:52.289Z,1019.71
2022-12-18T12:51:52.291Z,1019.67
2022-12-18T12:54:52.286Z,1019.63
2022-12-18T12:57:52.276Z,1019.62
2022-12-18T13:00:52.331Z,1019.53
2022-12-18T13:03:52.278Z,1019.58
2022-12-18T13:06:52.273Z,1019.69
2022-12-18T13:09:52.280Z,1019.62
2022-12-18T13:12:52.278Z,1019.56
2022-12-18T13:15:52.273Z,1019.58
2022-12-18T13:18:52.267Z,1019.55
2022-12-18T13:21:52.273Z,1019.55
2022-12-18T13:24:52.273Z,1019.47
2022-12-18T13:27:52.266Z,1019.42
2022-12-18T13:30:52.587Z,1019.45
2022-12-18T13:34:24.242Z,1019.46
2022-12-18T13:36:52.277Z,1019.48
2022-12-18T13:39:52.271Z,1019.5
2022-12-18T13:42:52.283Z,1019.5
2022-12-18T13:45:52.282Z,1019.37
2022-12-18T13:48:52.284Z,1019.21
2022-12-18T13:51:52.284Z,1019.29
2022-12-18T13:54:52.292Z,1019.23
2022-12-18T13:57:52.289Z,1019.17
2022-12-18T14:00:52.459Z,1019.15
2022-12-18T14:03:52.288Z,1019.1
2022-12-18T14:06:52.281Z,1019.09
2022-12-18T14:09:53.596Z,1019.09
2022-12-18T14:12:52.316Z,1019.04
2022-12-18T14:15:52.285Z,1019.04
2022-12-18T14:18:52.289Z,1019.09
2022-12-18T14:21:52.274Z,1019.04
2022-12-18T14:24:52.275Z,1019.08
2022-12-18T14:27:52.269Z,1019.15
2022-12-18T14:30:52.347Z,1019.08
2022-12-18T14:33:52.271Z,1019.11
2022-12-18T14:36:52.341Z,1019.14
2022-12-18T14:39:52.311Z,1019.05
2022-12-18T14:42:52.305Z,1019.08
2022-12-18T14:45:52.339Z,1019.02
2022-12-18T14:48:52.302Z,1019.06
2022-12-18T14:51:52.296Z,1019.09
2022-12-18T14:54:52.305Z,1019.09
2022-12-18T14:57:52.296Z,1018.98
2022-12-18T15:00:52.291Z,1018.97
2022-12-18T15:03:52.322Z,1018.98
2022-12-18T15:06:52.292Z,1018.99
2022-12-18T15:09:52.302Z,1018.92
2022-12-18T15:12:52.288Z,1018.91
2022-12-18T15:15:52.314Z,1018.89
2022-12-18T15:18:52.301Z,1018.88
2022-12-18T15:21:52.291Z,1018.81
2022-12-18T15:24:52.304Z,1018.8
2022-12-18T15:27:52.293Z,1018.83
2022-12-18T15:30:52.345Z,1018.85
2022-12-18T15:33:52.296Z,1018.85
2022-12-18T15:36:52.310Z,1018.77
2022-12-18T15:39:52.313Z,1018.74
2022-12-18T15:42:52.302Z,1018.7
2022-12-18T15:45:52.345Z,1018.64
2022-12-18T15:48:55.464Z,1018.65
2022-12-18T15:51:52.298Z,1018.58
2022-12-18T15:54:52.297Z,1018.64
2022-12-18T15:57:52.290Z,1018.61
2022-12-18T16:00:52.291Z,1018.61
2022-12-18T16:03:52.324Z,1018.62
2022-12-18T16:07:14.241Z,1018.6
2022-12-18T16:09:52.321Z,1018.58
2022-12-18T16:12:52.319Z,1018.56
2022-12-18T16:15:52.327Z,1018.58
2022-12-18T16:18:52.304Z,1018.56
2022-12-18T16:21:52.296Z,1018.51
2022-12-18T16:24:52.297Z,1018.48
2022-12-18T16:27:52.451Z,1018.43
2022-12-18T16:30:52.480Z,1018.41
2022-12-18T16:33:52.400Z,1018.37
2022-12-18T16:36:52.407Z,1018.36
2022-12-18T16:39:52.395Z,1018.25
2022-12-18T16:42:52.398Z,1018.21
2022-12-18T16:45:52.394Z,1018.27
2022-12-18T16:48:52.398Z,1018.27
2022-12-18T16:51:52.397Z,1018.3
2022-12-18T16:54:52.393Z,1018.31
2022-12-18T16:57:52.394Z,1018.26
2022-12-18T17:00:52.391Z,1018.16
2022-12-18T17:03:52.421Z,1018.11
2022-12-18T17:06:52.398Z,1018.15
2022-12-18T17:09:52.386Z,1018.14
2022-12-18T17:12:52.372Z,1018.14
2022-12-18T17:15:52.392Z,1018.11
2022-12-18T17:18:52.363Z,1018.18
2022-12-18T17:21:52.350Z,1018.14
2022-12-18T17:24:52.348Z,1018.15
2022-12-18T17:27:52.350Z,1018.2
2022-12-18T17:30:52.383Z,1018.23
2022-12-18T17:33:52.344Z,1018.15
2022-12-18T17:36:52.337Z,1018.14
2022-12-18T17:39:52.335Z,1018.1
2022-12-18T17:42:52.329Z,1018.01
2022-12-18T17:45:52.320Z,1018.05
2022-12-18T17:48:52.325Z,1018.03
2022-12-18T17:51:52.317Z,1018.02
2022-12-18T17:54:52.307Z,1018.01
2022-12-18T17:57:52.310Z,1018.07
2022-12-18T18:00:52.321Z,1018.09
2022-12-18T18:03:52.893Z,1018.04
2022-12-18T18:06:52.307Z,1018.08
2022-12-18T18:09:52.314Z,1018.03
2022-12-18T18:12:52.291Z,1017.99
2022-12-18T18:15:52.325Z,1017.95
2022-12-18T18:18:52.296Z,1018.04
2022-12-18T18:21:52.292Z,1018.03
2022-12-18T18:24:52.287Z,1017.96
2022-12-18T18:27:52.293Z,1017.86
2022-12-18T18:30:52.302Z,1017.91
2022-12-18T18:33:52.294Z,1017.97
2022-12-18T18:36:52.299Z,1017.99
2022-12-18T18:39:52.290Z,1017.91
2022-12-18T18:42:52.287Z,1017.88
2022-12-18T18:45:52.320Z,1017.82
2022-12-18T18:48:52.294Z,1017.88
2022-12-18T18:51:52.294Z,1017.89
2022-12-18T18:55:11.979Z,1017.88
2022-12-18T18:57:52.298Z,1017.82
2022-12-18T19:00:52.358Z,1017.77
2022-12-18T19:03:52.294Z,1017.78
2022-12-18T19:06:52.303Z,1017.64
2022-12-18T19:09:52.353Z,1017.66
2022-12-18T19:12:52.287Z,1017.57
2022-12-18T19:15:52.292Z,1017.46
2022-12-18T19:18:53.341Z,1017.39
2022-12-18T19:21:52.310Z,1017.38
2022-12-18T19:24:52.325Z,1017.43
2022-12-18T19:27:52.299Z,1017.42
2022-12-18T19:30:55.402Z,1017.3
2022-12-18T19:33:52.306Z,1017.33
2022-12-18T19:36:55.319Z,1017.36
2022-12-18T19:39:52.308Z,1017.31
2022-12-18T19:42:52.313Z,1017.32
2022-12-18T19:45:52.386Z,1017.31
2022-12-18T19:48:52.315Z,1017.3
2022-12-18T19:51:52.391Z,1017.27
2022-12-18T19:54:52.324Z,1017.2
2022-12-18T19:57:52.315Z,1017.17
2022-12-18T20:00:52.353Z,1017.16
2022-12-18T20:03:53.839Z,1017.17
2022-12-18T20:06:52.316Z,1017.14
2022-12-18T20:09:57.177Z,1017.13
2022-12-18T20:12:52.332Z,1017.18
2022-12-18T20:15:52.314Z,1017.18
2022-12-18T20:18:52.418Z,1017.22
2022-12-18T20:21:52.327Z,1017.15
2022-12-18T20:24:52.345Z,1017.11
2022-12-18T20:27:52.349Z,1017.19
2022-12-18T20:30:52.348Z,1017.11
2022-12-18T20:33:53.337Z,1017.08
2022-12-18T20:36:52.353Z,1017.04
2022-12-18T20:39:52.362Z,1017.05
2022-12-18T20:42:52.367Z,1017.05
2022-12-18T20:45:52.366Z,1017.15
2022-12-18T20:48:52.351Z,1017.16
2022-12-18T20:51:52.357Z,1017.12
2022-12-18T20:54:52.376Z,1017.04
2022-12-18T20:57:52.413Z,1016.94
2022-12-18T21:00:52.447Z,1016.97
2022-12-18T21:03:52.379Z,1017
2022-12-18T21:07:00.608Z,1016.95
2022-12-18T21:09:52.378Z,1017
2022-12-18T21:12:56.779Z,1017.02
2022-12-18T21:15:52.504Z,1017.04
2022-12-18T21:18:52.369Z,1017.09
2022-12-18T21:21:52.372Z,1017.03
2022-12-18T21:24:52.379Z,1016.97
2022-12-18T21:27:52.592Z,1017
2022-12-18T21:30:52.487Z,1017.06
2022-12-18T21:33:52.651Z,1017.08
2022-12-18T21:36:52.481Z,1017.11
2022-12-18T21:39:52.473Z,1017.17
2022-12-18T21:42:52.453Z,1017.14
2022-12-18T21:45:52.497Z,1017.11
2022-12-18T21:48:52.450Z,1017.08
2022-12-18T21:51:52.447Z,1017.09
2022-12-18T21:54:52.442Z,1017.09
2022-12-18T21:57:52.446Z,1017.06
2022-12-18T22:00:52.439Z,1017.08
2022-12-18T22:03:52.462Z,1017.13
2022-12-18T22:06:52.461Z,1017.14
2022-12-18T22:09:52.458Z,1017.1
2022-12-18T22:12:54.931Z,1017.01
2022-12-18T22:15:52.469Z,1016.96
2022-12-18T22:18:52.440Z,1016.98
2022-12-18T22:21:52.436Z,1017.02
2022-12-18T22:24:52.432Z,1016.93
2022-12-18T22:27:52.440Z,1016.94
2022-12-18T22:30:54.946Z,1017.01
2022-12-18T22:33:52.436Z,1017
2022-12-18T22:36:52.452Z,1016.99
2022-12-18T22:39:52.429Z,1016.97
2022-12-18T22:42:52.637Z,1016.96
2022-12-18T22:45:52.423Z,1016.96
2022-12-18T22:48:52.433Z,1016.93
2022-12-18T22:51:52.450Z,1016.9
2022-12-18T22:54:53.173Z,1016.86
2022-12-18T22:57:52.423Z,1016.8
2022-12-18T23:00:52.428Z,1016.84
2022-12-18T23:03:52.477Z,1016.8
2022-12-18T23:06:52.429Z,1016.77
2022-12-18T23:09:52.428Z,1016.7
2022-12-18T23:12:52.423Z,1016.71
2022-12-18T23:15:52.457Z,1016.68
2022-12-18T23:18:52.434Z,1016.68
2022-12-18T23:21:52.434Z,1016.69
2022-12-18T23:24:52.438Z,1016.68
2022-12-18T23:27:52.454Z,1016.66
2022-12-18T23:30:52.495Z,1016.62
2022-12-18T23:33:52.439Z,1016.5
2022-12-18T23:36:55.958Z,1016.52
2022-12-18T23:39:52.471Z,1016.57
2022-12-18T23:42:52.437Z,1016.59
2022-12-18T23:45:55.610Z,1016.62
2022-12-18T23:48:52.663Z,1016.52
2022-12-18T23:51:52.435Z,1016.47
2022-12-18T23:54:52.469Z,1016.4
2022-12-18T23:57:52.445Z,1016.36
